Home > Products > Valid Products > TAF

000
FTUS41 KRLX 061128
TAFCKB
TAF
KCKB 061128Z 0612/0712 34005KT P6SM BKN080
      TEMPO 0612/0614 BKN015
     FM061400 35006KT P6SM BKN015
     FM061600 35007KT P6SM BKN025
     FM061800 34008KT 5SM SHRA BR BKN050
     FM062000 34007KT 6SM SHRA BR VCTS BKN040CB
     FM062300 33008KT P6SM BKN060
     FM070300 VRB03KT P6SM BKN060=



000
FTUS41 KRLX 061128
TAFBKW
TAF
KBKW 061128Z 0612/0712 33008KT 6SM BR OVC004
     FM061500 32009KT P6SM -SHRA OVC008
     FM061800 32013G21KT 5SM SHRA BR VCTS OVC025CB
     FM062000 32013G21KT P6SM -SHRA VCTS BKN025CB
     FM062200 31011G19KT P6SM BKN025
     FM070000 31008KT P6SM BKN025
     FM070300 32007KT P6SM SCT035=



000
FTUS41 KRLX 061128
TAFHTS
TAF
KHTS 061128Z 0612/0712 VRB03KT P6SM BKN070
     FM061700 33007KT P6SM BKN050
     FM070100 32006KT P6SM SCT060
     FM070500 00000KT P6SM FEW060=



000
FTUS41 KRLX 061128
TAFEKN
TAF
KEKN 061128Z 0612/0712 VRB03KT P6SM OVC035
      TEMPO 0612/0616 5SM -SHRA BR BKN012 OVC025
     FM061700 32007KT 3SM SHRA BR VCTS OVC025CB
     FM062100 31008KT 2SM SHRA BR VCTS OVC025CB
     FM062300 31006KT 3SM SHRA BR VCTS OVC025CB
     FM070200 32004KT P6SM BKN025
     FM070400 VRB03KT P6SM BKN035=



000
FTUS41 KRLX 061128
TAFCRW
TAF
KCRW 061128Z 0612/0712 00000KT P6SM BKN050
      TEMPO 0612/0614 BKN025
     FM061400 VRB03KT P6SM BKN025
     FM061700 33006KT P6SM BKN040
     FM070200 VRB03KT P6SM SCT050=



000
FTUS41 KRLX 061128
TAFPKB
TAF
KPKB 061128Z 0612/0712 34004KT P6SM SCT080
     FM061700 33008KT P6SM BKN040
     FM062300 33009KT P6SM SCT060
     FM070200 32005KT P6SM SCT050=



000
FTUS41 KRLX 061120
TAFCRW
TAF
KCRW 061120Z 0612/0712 00000KT P6SM BKN050
      TEMPO 0612/0614 BKN025
     FM061400 VRB03KT P6SM BKN025
     FM061700 33006KT P6SM BKN040
     FM070200 VRB03KT P6SM SCT050=



000
FTUS41 KRLX 061120
TAFEKN
TAF
KEKN 061120Z 0612/0712 VRB03KT P6SM OVC035
      TEMPO 0612/0616 5SM -SHRA BR BKN012 OVC025
     FM061700 32007KT 3SM SHRA BR VCTS OVC025CB
     FM062100 31008KT 2SM SHRA BR VCTS OVC025CB
     FM062300 31006KT 3SM SHRA BR VCTS OVC025CB
     FM070200 32004KT P6SM BKN025
     FM070400 VRB03KT P6SM BKN035=



000
FTUS41 KRLX 061120
TAFHTS
TAF
KHTS 061120Z 0612/0712 VRB03KT P6SM BKN070
     FM061700 33007KT P6SM BKN050
     FM070100 32006KT P6SM SCT060
     FM070500 00000KT P6SM FEW060=



000
FTUS41 KRLX 061120
TAFCRW
TAF
KCRW 061120Z 0612/0712 00000KT P6SM BKN050
      TEMPO 0612/0614 BKN025
     FM061400 VRB03KT P6SM BKN025
     FM061700 33006KT P6SM BKN040
     FM070200 VRB03KT P6SM SCT050=



000
FTUS41 KRLX 061120
TAFBKW
TAF
KBKW 061120Z 0612/0712 33008KT 5SM BR OVC004
      TEMPO 0612/0615 2SM BR OVC002
     FM061500 32009KT P6SM -SHRA OVC008
     FM061800 32013G21KT 5SM SHRA BR VCTS OVC025CB
     FM062000 32013G21KT P6SM -SHRA VCTS BKN025CB
     FM062200 31011G19KT P6SM BKN025
     FM070000 31008KT P6SM BKN025
     FM070300 32007KT P6SM SCT035=



000
FTUS41 KRLX 061120
TAFEKN
TAF
KEKN 061120Z 0612/0712 VRB03KT P6SM OVC035
      TEMPO 0612/0616 5SM -SHRA BR BKN012 OVC025
     FM061700 32007KT 3SM SHRA BR VCTS OVC025CB
     FM062100 31008KT 2SM SHRA BR VCTS OVC025CB
     FM062300 31006KT 3SM SHRA BR VCTS OVC025CB
     FM070200 32004KT P6SM BKN025
     FM070400 VRB03KT P6SM BKN035=



000
FTUS41 KRLX 061120
TAFHTS
TAF
KHTS 061120Z 0612/0712 VRB03KT P6SM BKN070
     FM061700 33007KT P6SM BKN050
     FM070100 32006KT P6SM SCT060
     FM070500 00000KT P6SM FEW060=



000
FTUS41 KRLX 061120
TAFBKW
TAF
KBKW 061120Z 0612/0712 33008KT 5SM BR OVC004
      TEMPO 0612/0615 2SM BR OVC002
     FM061500 32009KT P6SM -SHRA OVC008
     FM061800 32013G21KT 5SM SHRA BR VCTS OVC025CB
     FM062000 32013G21KT P6SM -SHRA VCTS BKN025CB
     FM062200 31011G19KT P6SM BKN025
     FM070000 31008KT P6SM BKN025
     FM070300 32007KT P6SM SCT035=



000
FTUS41 KRLX 061120
TAFCKB
TAF
KCKB 061120Z 0612/0712 34005KT P6SM BKN080
      TEMPO 0612/0614 BKN015
     FM061400 35006KT P6SM BKN015
     FM061600 35007KT P6SM BKN025
     FM061800 34008KT 5SM SHRA BR BKN050
     FM062000 34007KT 6SM SHRA BR VCTS BKN040CB
     FM062300 33008KT P6SM BKN060
     FM070300 VRB03KT P6SM BKN060=



000
FTUS41 KRLX 061120
TAFPKB
TAF
KPKB 061120Z 0612/0712 34004KT P6SM SCT080
     FM061700 33008KT P6SM BKN040
     FM062300 33009KT P6SM SCT060
     FM070200 32005KT P6SM SCT050=



000
FTUS41 KRLX 061120
TAFPKB
TAF
KPKB 061120Z 0612/0712 34004KT P6SM SCT080
     FM061700 33008KT P6SM BKN040
     FM062300 33009KT P6SM SCT060
     FM070200 32005KT P6SM SCT050=



000
FTUS41 KRLX 061120
TAFCKB
TAF
KCKB 061120Z 0612/0712 34005KT P6SM BKN080
      TEMPO 0612/0614 BKN015
     FM061400 35006KT P6SM BKN015
     FM061600 35007KT P6SM BKN025
     FM061800 34008KT 5SM SHRA BR BKN050
     FM062000 34007KT 6SM SHRA BR VCTS BKN040CB
     FM062300 33008KT P6SM BKN060
     FM070300 VRB03KT P6SM BKN060=



000
FTUS41 KRLX 060835 AAA
TAFCKB
TAF AMD
KCKB 060835Z 0609/0706 34005KT P6SM BKN050
      TEMPO 0609/0612 BKN025
     FM061200 VRB03KT P6SM BKN015
     FM061600 35007KT P6SM BKN025
     FM061800 34008KT 5SM SHRA BR BKN050
     FM062000 34007KT 6SM -SHRA BR BKN040
     FM062200 34007KT P6SM BKN040
     FM070300 VRB03KT P6SM BKN060=



000
FTUS41 KRLX 060835 AAA
TAFHTS
TAF AMD
KHTS 060835Z 0609/0706 33004KT P6SM BKN060
     FM061300 33007KT P6SM BKN050
     FM070100 32004KT P6SM SCT060
     FM070500 00000KT P6SM FEW060=



000
FTUS41 KRLX 060835 AAA
TAFCRW
TAF AMD
KCRW 060835Z 0609/0706 VRB03KT P6SM OVC040
      TEMPO 0609/0611 6SM BR FEW001 BKN025
     FM061100 00000KT P6SM SCT008 BKN050
      TEMPO 0611/0614 4SM BR SCT025
     FM061400 VRB03KT P6SM BKN025
     FM061700 33006KT P6SM BKN040
     FM070200 VRB03KT P6SM SCT050=



000
FTUS41 KRLX 060835 AAB
TAFEKN
TAF AMD
KEKN 060835Z 0609/0706 00000KT P6SM BKN035
      TEMPO 0610/0614 BKN025
     FM061400 32004KT 3SM -SHRA BR OVC025
     FM062100 31008KT 2SM SHRA BR OVC015
     FM070000 30006KT 4SM -SHRA BR OVC025
     FM070200 32004KT P6SM BKN025
     FM070400 VRB03KT P6SM BKN035=



000
FTUS41 KRLX 060835 AAA
TAFBKW
TAF AMD
KBKW 060835Z 0609/0706 34007KT 6SM BR OVC004
      TEMPO 0609/0613 2SM BR OVC002
     FM061400 32009KT P6SM -SHRA OVC008
     FM061700 32012G20KT 5SM SHRA BR OVC025
     FM062200 31011G19KT P6SM BKN025
     FM070000 31008KT P6SM BKN025
     FM070200 32007KT P6SM BKN035
     FM070400 32006KT P6SM SCT035=



000
FTUS41 KRLX 060835 AAA
TAFPKB
TAF AMD
KPKB 060835Z 0609/0706 34006KT P6SM BKN050
     FM062000 33010G17KT P6SM BKN050
     FM062300 33009KT P6SM SCT060
     FM070200 32005KT P6SM SCT050=



000
FTUS41 KRLX 060740 AAA
TAFEKN
TAF AMD
KEKN 060740Z 0608/0706 00000KT P6SM BKN025
      TEMPO 0608/0612 SCT025 BKN050
     FM061400 32004KT 3SM -SHRA BR OVC025
     FM062100 31008KT 2SM SHRA BR OVC015
     FM070000 30006KT 4SM -SHRA BR OVC025
     FM070200 32004KT P6SM BKN025
     FM070400 VRB03KT P6SM BKN035=



000
FTUS41 KRLX 060740 AAA
TAFEKN
TAF AMD
KEKN 060740Z 0608/0706 00000KT P6SM BKN025
      TEMPO 0608/0612 SCT025 BKN050
     FM061400 32004KT 3SM -SHRA BR OVC025
     FM062100 31008KT 2SM SHRA BR OVC015
     FM070000 30006KT 4SM -SHRA BR OVC025
     FM070200 32004KT P6SM BKN025
     FM070400 VRB03KT P6SM BKN035=



000
FTUS41 KRLX 060539
TAFBKW
TAF
KBKW 060539Z 0606/0706 33009KT 4SM -SHRA BR OVC006
      TEMPO 0606/0610 6SM -SHRA BR OVC003
     FM061000 33007KT 6SM BR OVC003
     FM061400 32009KT P6SM -SHRA OVC008
     FM061700 32012G20KT 5SM SHRA BR OVC025
     FM062200 31011G19KT P6SM BKN025
     FM070000 31008KT P6SM BKN025
     FM070200 32007KT P6SM BKN035
     FM070400 32006KT P6SM SCT035=



000
FTUS41 KRLX 060539
TAFHTS
TAF
KHTS 060539Z 0606/0706 33004KT P6SM SCT050
     FM061300 33007KT P6SM BKN050
     FM070100 32004KT P6SM SCT060
     FM070500 00000KT P6SM FEW060=



000
FTUS41 KRLX 060539
TAFCKB
TAF
KCKB 060539Z 0606/0706 34005KT P6SM BKN050
      TEMPO 0606/0610 BKN025
     FM061000 VRB03KT P6SM BKN015
     FM061600 35007KT P6SM BKN025
     FM061800 34008KT 5SM SHRA BR BKN050
     FM062000 34007KT 6SM -SHRA BR BKN040
     FM062200 34007KT P6SM BKN040
     FM070300 VRB03KT P6SM BKN060=



000
FTUS41 KRLX 060539
TAFPKB
TAF
KPKB 060539Z 0606/0706 34006KT P6SM BKN050
     FM062000 33010G17KT P6SM BKN050
     FM062300 33009KT P6SM SCT060
     FM070200 32005KT P6SM SCT050=



000
FTUS41 KRLX 060539
TAFCRW
TAF
KCRW 060539Z 0606/0706 VRB03KT P6SM OVC040
      TEMPO 0606/0610 SCT008 BKN025
     FM061000 00000KT P6SM SCT008 BKN015
      TEMPO 0610/0614 4SM BR SCT025
     FM061400 VRB03KT P6SM BKN025
     FM061700 33006KT P6SM BKN040
     FM070200 VRB03KT P6SM SCT050=



000
FTUS41 KRLX 060539
TAFEKN
TAF
KEKN 060539Z 0606/0706 00000KT P6SM OVC015
      TEMPO 0606/0610 BKN025
     FM061400 32004KT 3SM -SHRA BR OVC025
     FM062100 31008KT 2SM SHRA BR OVC015
     FM070000 30006KT 4SM -SHRA BR OVC025
     FM070200 32004KT P6SM BKN025
     FM070400 VRB03KT P6SM BKN035=



000
FTUS41 KRLX 060251 AAB
TAFEKN
TAF AMD
KEKN 060251Z 0603/0624 32004KT 5SM SHRA BR SCT008 OVC015
     FM060500 33004KT 5SM SHRA BR OVC007
     FM060900 34004KT 2SM SHRA BR OVC007
     FM061500 32007KT 6SM SHRA OVC013
     FM061700 33009G15KT 5SM SHRA OVC025=



000
FTUS41 KRLX 060251 AAA
TAFCKB
TAF AMD
KCKB 060251Z 0603/0624 36005KT P6SM OVC025
     FM061000 35005KT 6SM BR OVC008
     FM061300 35006KT P6SM OVC015
     FM061700 34009G15KT 6SM SHRA BKN040=



000
FTUS41 KRLX 060251 AAB
TAFCRW
TAF AMD
KCRW 060251Z 0603/0624 30006KT 6SM -SHRADZ SCT006 BKN015 OVC025
     FM060600 32005KT 3SM BR BKN010
     FM061400 33006KT P6SM BKN025
     FM061700 33007KT P6SM BKN040=



000
FTUS41 KRLX 060251 AAA
TAFHTS
TAF AMD
KHTS 060251Z 0603/0624 33007KT P6SM BKN035
     FM062000 33008KT P6SM BKN060=



000
FTUS41 KRLX 060251 AAA
TAFPKB
TAF AMD
KPKB 060251Z 0603/0624 35005KT P6SM BKN035 OVC050
     FM061800 34009G15KT P6SM BKN050=



000
FTUS41 KRLX 060251 AAA
TAFBKW
TAF AMD
KBKW 060251Z 0603/0624 30006KT 3SM SHRA BR OVC006
     FM060900 33006KT 5SM SHRA OVC004
     FM061400 33008KT P6SM OVC006
     FM061600 33009G15KT 5SM SHRA OVC013
     FM061800 33011G18KT 5SM SHRA OVC030=



000
FTUS41 KRLX 060251 AAB
TAFCRW
TAF AMD
KCRW 060251Z 0603/0624 30006KT 6SM -SHRADZ SCT006 BKN015 OVC025
     FM060600 32005KT 3SM BR BKN010
     FM061400 33006KT P6SM BKN025
     FM061700 33007KT P6SM BKN040=



000
FTUS41 KRLX 060251 AAA
TAFPKB
TAF AMD
KPKB 060251Z 0603/0624 35005KT P6SM BKN035 OVC050
     FM061800 34009G15KT P6SM BKN050=



000
FTUS41 KRLX 060251 AAA
TAFHTS
TAF AMD
KHTS 060251Z 0603/0624 33007KT P6SM BKN035
     FM062000 33008KT P6SM BKN060=



000
FTUS41 KRLX 060251 AAA
TAFCKB
TAF AMD
KCKB 060251Z 0603/0624 36005KT P6SM OVC025
     FM061000 35005KT 6SM BR OVC008
     FM061300 35006KT P6SM OVC015
     FM061700 34009G15KT 6SM SHRA BKN040=



000
FTUS41 KRLX 060251 AAA
TAFBKW
TAF AMD
KBKW 060251Z 0603/0624 30006KT 3SM SHRA BR OVC006
     FM060900 33006KT 5SM SHRA OVC004
     FM061400 33008KT P6SM OVC006
     FM061600 33009G15KT 5SM SHRA OVC013
     FM061800 33011G18KT 5SM SHRA OVC030=



000
FTUS41 KRLX 060251 AAB
TAFEKN
TAF AMD
KEKN 060251Z 0603/0624 32004KT 5SM SHRA BR SCT008 OVC015
     FM060500 33004KT 5SM SHRA BR OVC007
     FM060900 34004KT 2SM SHRA BR OVC007
     FM061500 32007KT 6SM SHRA OVC013
     FM061700 33009G15KT 5SM SHRA OVC025=



000
FTUS41 KRLX 060201 AAA
TAFCRW
TAF AMD
KCRW 060201Z 0602/0624 30006KT 6SM -SHRADZ BKN006 BKN015 OVC025
     FM060600 32005KT 3SM BR BKN010
     FM061400 33006KT P6SM BKN025
     FM061700 33007KT P6SM BKN040=



000
FTUS41 KRLX 060201 AAA
TAFCRW
TAF AMD
KCRW 060201Z 0602/0624 30006KT 6SM -SHRADZ BKN006 BKN015 OVC025
     FM060600 32005KT 3SM BR BKN010
     FM061400 33006KT P6SM BKN025
     FM061700 33007KT P6SM BKN040=



000
FTUS41 KRLX 060128 AAA
TAFEKN
TAF AMD
KEKN 060128Z 0601/0624 32004KT 5SM SHRA BR OVC008
     FM060500 33004KT 5SM SHRA BR OVC007
     FM060900 34004KT 2SM SHRA BR OVC007
     FM061500 32007KT 6SM SHRA OVC013
     FM061700 33009G15KT 5SM SHRA OVC025=



000
FTUS41 KRLX 052339
TAFEKN
TAF
KEKN 052339Z 0600/0624 32006KT 3SM SHRA OVC013
     FM060100 32004KT 5SM SHRA OVC013
     FM060500 33004KT 5SM SHRA OVC007
     FM060900 34004KT 2SM SHRA OVC007
     FM061500 32007KT 6SM SHRA OVC013
     FM061700 33009G15KT 5SM SHRA OVC025=



000
FTUS41 KRLX 052339
TAFCKB
TAF
KCKB 052339Z 0600/0624 36005KT 6SM SHRA OVC025
     FM060300 34004KT P6SM SHRA OVC015
     FM060800 35005KT 6SM -DZ BR OVC008
     FM061300 35006KT P6SM OVC015
     FM061700 34009G15KT 6SM SHRA BKN040=



000
FTUS41 KRLX 052339
TAFCRW
TAF
KCRW 052339Z 0600/0624 30006KT 3SM SHRA SCT005 BKN015 OVC025
     FM060200 29006KT 6SM SHRA OVC025
     FM060600 32005KT 3SM BR BKN012
     FM061400 33006KT P6SM BKN025
     FM061700 33007KT P6SM BKN040=



000
FTUS41 KRLX 052339
TAFPKB
TAF
KPKB 052339Z 0600/0624 34006KT 6SM SHRA BKN025 OVC050
     FM060300 35005KT P6SM BKN035 OVC050
     FM061800 34009G15KT P6SM BKN050=



000
FTUS41 KRLX 052339
TAFBKW
TAF
KBKW 052339Z 0600/0624 30006KT 3SM SHRA BR OVC006
     FM060900 33006KT 5SM SHRA OVC004
     FM061400 33008KT P6SM OVC006
     FM061600 33009G15KT 5SM SHRA OVC013
     FM061800 33011G18KT 5SM SHRA OVC030=



000
FTUS41 KRLX 052339
TAFHTS
TAF
KHTS 052339Z 0600/0624 32007KT P6SM BKN025 OVC035
     FM060400 33007KT P6SM BKN035
     FM062000 33008KT P6SM BKN060=



000
FTUS41 KRLX 052139 AAA
TAFPKB
TAF AMD
KPKB 052139Z 0522/0618 33007KT P6SM -SHRA SCT008 OVC025
     FM060200 35007KT P6SM BKN025
     FM060500 35006KT P6SM BKN035
     FM061400 33010KT P6SM BKN040=



000
FTUS41 KRLX 052138 AAA
TAFHTS
TAF AMD
KHTS 052138Z 0522/0618 31007KT P6SM OVC035
     FM060200 33007KT P6SM BKN030
     FM060400 33006KT P6SM BKN035
     FM060600 33007KT P6SM SCT040
     FM061400 32010KT P6SM BKN040=



000
FTUS41 KRLX 052138 AAA
TAFCRW
TAF AMD
KCRW 052138Z 0522/0618 33006KT 6SM -SHRA BR SCT008 OVC020
     FM060200 34005KT 4SM -SHRA BR OVC010
     FM060500 33006KT 3SM BR BKN008
     FM060800 32005KT P6SM OVC007
     FM061400 33010KT P6SM OVC015
     FM061600 32010KT P6SM OVC025=



000
FTUS41 KRLX 052137 AAA
TAFBKW
TAF AMD
KBKW 052137Z 0522/0618 31007KT 4SM -SHRA BR BKN009 OVC015
     FM060200 32007KT 2SM -SHRA BR OVC007
     FM060400 34007KT 1SM -SHRA BR OVC003
     FM061300 33008KT 3SM -SHRA BR OVC008=



000
FTUS41 KRLX 052034 AAA
TAFCKB
TAF AMD
KCKB 052034Z 0521/0618 33005KT 6SM -SHRA VCTS BKN015CB OVC050
     FM052300 35005KT 5SM -SHRA BR OVC010
     FM060300 35006KT 4SM -SHRA BR OVC008
     FM060600 35006KT 6SM BR OVC007
     FM061500 33010KT P6SM -SHRA SCT007 OVC015=



000
FTUS41 KRLX 051753
TAFCRW
TAF
KCRW 051753Z 0518/0618 33006KT 5SM -SHRA BR SCT008 OVC015
     FM060200 34005KT 4SM -SHRA BR OVC010
     FM060500 33006KT 3SM BR BKN008
     FM060800 32005KT P6SM OVC007
     FM061400 33010KT P6SM OVC015
     FM061600 32010KT P6SM OVC025=



000
FTUS41 KRLX 051753
TAFCKB
TAF
KCKB 051753Z 0518/0618 35005KT 5SM -SHRA BR OVC010
     FM060300 35006KT 4SM -SHRA BR OVC008
     FM060600 35006KT 6SM BR OVC007
     FM061500 33010KT P6SM -SHRA SCT007 OVC015=



000
FTUS41 KRLX 051753
TAFEKN
TAF
KEKN 051753Z 0518/0618 35005KT 4SM -SHRA BR SCT008 OVC015
     FM060200 34004KT 2SM -SHRA BR OVC006
     FM061500 35010KT 4SM -SHRA BR SCT007 OVC012=



000
FTUS41 KRLX 051753
TAFBKW
TAF
KBKW 051753Z 0518/0618 31007KT 4SM -SHRA BR BKN010 OVC020
     FM060200 32007KT 2SM -SHRA BR OVC007
     FM060400 34007KT 1SM -SHRA BR OVC003
     FM061300 33008KT 3SM -SHRA BR OVC008=



000
FTUS41 KRLX 051753
TAFPKB
TAF
KPKB 051753Z 0518/0618 33007KT P6SM -SHRA SCT008 OVC012
     FM052300 34006KT P6SM BKN020
     FM060200 35007KT P6SM BKN025
     FM060500 35006KT P6SM BKN035
     FM061400 33010KT P6SM BKN040=



000
FTUS41 KRLX 051753
TAFHTS
TAF
KHTS 051753Z 0518/0618 31007KT P6SM BKN030
     FM052100 31007KT P6SM -SHRA OVC025
     FM060000 32005KT 5SM BR BKN020
     FM060200 33007KT P6SM BKN030
     FM060400 33006KT P6SM BKN035
     FM060600 33007KT P6SM SCT040
     FM061400 32010KT P6SM BKN040=



000
FTUS41 KRLX 051753
TAFCRW
TAF
KCRW 051753Z 0518/0618 33006KT 5SM -SHRA BR SCT008 OVC015
     FM060200 34005KT 4SM -SHRA BR OVC010
     FM060500 33006KT 3SM BR BKN008
     FM060800 32005KT P6SM OVC007
     FM061400 33010KT P6SM OVC015
     FM061600 32010KT P6SM OVC025=



000
FTUS41 KRLX 051532 AAA
TAFEKN
TAF AMD
KEKN 051532Z 0516/0612 35005KT 6SM -SHRA HZ BKN009 OVC012
     FM060200 34004KT 2SM -SHRA BR OVC005=



000
FTUS41 KRLX 051501 AAB
TAFCKB
TAF AMD
KCKB 051501Z 0515/0612 35004KT 4SM -SHRA BR OVC008
     FM051900 35004KT 5SM -SHRA BR OVC010
     FM060200 35006KT 4SM -SHRA BR OVC008
     FM060400 35006KT 6SM BR OVC007=



000
FTUS41 KRLX 051501 AAA
TAFPKB
TAF AMD
KPKB 051501Z 0515/0612 33005KT 5SM -SHRA SCT008 OVC010
      TEMPO 0515/0517 BKN008
     FM052100 34006KT 6SM -SHRA OVC015
     FM052300 35007KT P6SM BKN020
     FM060200 35007KT P6SM BKN025
     FM060500 35006KT P6SM BKN035=



000
FTUS41 KRLX 051501 AAA
TAFCRW
TAF AMD
KCRW 051501Z 0515/0612 29005KT 5SM -SHRA SCT012 OVC020
     FM051800 29005KT 3SM -SHRA BR SCT007 OVC012
     FM060100 31006KT 4SM -SHRA BR OVC010
     FM060500 33006KT 5SM BR BKN008=



000
FTUS41 KRLX 051501 AAA
TAFHTS
TAF AMD
KHTS 051501Z 0515/0612 30006KT P6SM BKN030 OVC050
     FM051900 31006KT 5SM -SHRA BR OVC020
     FM052300 32007KT 5SM BR BKN020
     FM060200 33007KT P6SM BKN030
     FM060400 33006KT P6SM BKN035
     FM060600 33007KT P6SM SCT040=



000
FTUS41 KRLX 051501 AAA
TAFBKW
TAF AMD
KBKW 051501Z 0515/0612 30007KT 4SM -SHRA BR BKN010 OVC020
     FM060200 32007KT 2SM -SHRA BR OVC007
     FM060400 32007KT 1SM -SHRA BR OVC003=



000
FTUS41 KRLX 051501 AAA
TAFEKN
TAF AMD
KEKN 051501Z 0515/0612 35005KT 3SM -SHRA HZ SCT008 OVC012
     FM060200 34004KT 2SM -SHRA BR OVC005=



000
FTUS41 KRLX 051302 AAA
TAFCKB
TAF AMD
KCKB 051302Z 0513/0612 33005KT 5SM -SHRA BR SCT007 OVC020
      TEMPO 0513/0517 2SM SHRA BKN006
     FM060100 36004KT 4SM -SHRA BR OVC007=



000
FTUS41 KRLX 051126
TAFHTS
TAF
KHTS 051126Z 0512/0612 28003KT P6SM SCT030 OVC045
     FM051500 27004KT P6SM OVC030
     FM051900 30005KT 4SM SHRA BR BKN015=



000
FTUS41 KRLX 051126
TAFCRW
TAF
KCRW 051126Z 0512/0612 28004KT P6SM SCT025 OVC045
     FM051400 33005KT P6SM SCT008 BKN025
     FM051900 26005KT 5SM SHRA BR BKN015=



000
FTUS41 KRLX 051120
TAFPKB
TAF
KPKB 051120Z 0512/0612 VRB03KT 6SM SHRA BR BKN010 OVC015
     FM051700 35004KT 4SM SHRA BR OVC012=



000
FTUS41 KRLX 051120
TAFEKN
TAF
KEKN 051120Z 0512/0612 31003KT 3SM SHRA BR BKN008 OVC035
     FM052000 33005KT 3SM SHRA BR OVC015=



000
FTUS41 KRLX 051120
TAFCKB
TAF
KCKB 051120Z 0512/0612 32005KT 5SM SHRA BR SCT005 OVC035
     FM051800 01004KT 4SM SHRA BR OVC015=



000
FTUS41 KRLX 051120
TAFBKW
TAF
KBKW 051120Z 0512/0612 31005KT 5SM -SHRA BR SCT005 OVC015
      TEMPO 0512/0515 BKN005 OVC015
     FM051500 30007KT 3SM SHRA BR BKN015=



000
FTUS41 KRLX 051120
TAFPKB
TAF
KPKB 051120Z 0512/0612 VRB03KT 6SM SHRA BR BKN010 OVC015
     FM051700 35004KT 4SM SHRA BR OVC012=



000
FTUS41 KRLX 051120
TAFEKN
TAF
KEKN 051120Z 0512/0612 31003KT 3SM SHRA BR BKN008 OVC035
     FM052000 33005KT 3SM SHRA BR OVC015=



000
FTUS41 KRLX 051120
TAFCKB
TAF
KCKB 051120Z 0512/0612 32005KT 5SM SHRA BR SCT005 OVC035
     FM051800 01004KT 4SM SHRA BR OVC015=



000
FTUS41 KRLX 051120
TAFBKW
TAF
KBKW 051120Z 0512/0612 31005KT 5SM -SHRA BR SCT005 OVC015
      TEMPO 0512/0515 BKN005 OVC015
     FM051500 30007KT 3SM SHRA BR BKN015=



000
FTUS41 KRLX 051043 AAB
TAFCKB
TAF AMD
KCKB 051043Z 0511/0606 30005KT 1SM SHRA BR BKN003 OVC045
     FM051300 32005KT 5SM SHRA BR OVC007
     FM051800 01004KT 3SM SHRA BR OVC015=



000
FTUS41 KRLX 051043 AAB
TAFCKB
TAF AMD
KCKB 051043Z 0511/0606 30005KT 1SM SHRA BR BKN003 OVC045
     FM051300 32005KT 5SM SHRA BR OVC007
     FM051800 01004KT 3SM SHRA BR OVC015=



000
FTUS41 KRLX 051041 AAB
TAFEKN
TAF AMD
KEKN 051041Z 0511/0606 31003KT 3SM SHRA BR BKN008 OVC040
     FM052000 33005KT 3SM SHRA BR OVC015=



000
FTUS41 KRLX 050904 AAA
TAFCKB
TAF AMD
KCKB 050904Z 0509/0606 30005KT 5SM SHRA OVC035
     FM051200 32005KT 5SM SHRA BR OVC007
     FM051800 01004KT 3SM SHRA BR OVC015=



000
FTUS41 KRLX 050904 AAA
TAFCRW
TAF AMD
KCRW 050904Z 0509/0606 33005KT 2SM -RA BR BKN008 BKN015
     FM051300 27006KT 5SM BR BKN015 OVC050
     FM051800 26005KT 5SM SHRA BR BKN015=



000
FTUS41 KRLX 050904 AAA
TAFEKN
TAF AMD
KEKN 050904Z 0509/0606 32004KT 4SM SHRA BR SCT015 OVC035
     FM051100 31003KT 3SM SHRA BR OVC008
     FM052000 33005KT 3SM SHRA BR OVC015=



000
FTUS41 KRLX 050904 AAA
TAFEKN
TAF AMD
KEKN 050904Z 0509/0606 32004KT 4SM SHRA BR SCT015 OVC035
     FM051100 31003KT 3SM SHRA BR OVC008
     FM052000 33005KT 3SM SHRA BR OVC015=



000
FTUS41 KRLX 050904 AAA
TAFCRW
TAF AMD
KCRW 050904Z 0509/0606 33005KT 2SM -RA BR BKN008 BKN015
     FM051300 27006KT 5SM BR BKN015 OVC050
     FM051800 26005KT 5SM SHRA BR BKN015=



000
FTUS41 KRLX 050904 AAA
TAFCKB
TAF AMD
KCKB 050904Z 0509/0606 30005KT 5SM SHRA OVC035
     FM051200 32005KT 5SM SHRA BR OVC007
     FM051800 01004KT 3SM SHRA BR OVC015=



000
FTUS41 KRLX 050904 AAA
TAFBKW
TAF AMD
KBKW 050904Z 0509/0606 31005KT 3SM -SHRA BR BKN005
     FM051500 30007KT 3SM SHRA BR BKN012=



000
FTUS41 KRLX 050904 AAA
TAFPKB
TAF AMD
KPKB 050904Z 0509/0606 VRB03KT 5SM SHRA BR BKN010 OVC015
     FM051700 35004KT 3SM SHRA BR OVC012=



000
FTUS41 KRLX 050904 AAA
TAFHTS
TAF AMD
KHTS 050904Z 0509/0606 29006KT 5SM BR SCT030 OVC045
     FM051300 27004KT P6SM OVC030
     FM051700 30005KT 4SM SHRA BR BKN015=



000
FTUS41 KRLX 050904 AAA
TAFHTS
TAF AMD
KHTS 050904Z 0509/0606 29006KT 5SM BR SCT030 OVC045
     FM051300 27004KT P6SM OVC030
     FM051700 30005KT 4SM SHRA BR BKN015=



000
FTUS41 KRLX 050904 AAA
TAFPKB
TAF AMD
KPKB 050904Z 0509/0606 VRB03KT 5SM SHRA BR BKN010 OVC015
     FM051700 35004KT 3SM SHRA BR OVC012=



000
FTUS41 KRLX 050904 AAA
TAFBKW
TAF AMD
KBKW 050904Z 0509/0606 31005KT 3SM -SHRA BR BKN005
     FM051500 30007KT 3SM SHRA BR BKN012=



000
FTUS41 KRLX 050538
TAFHTS
TAF
KHTS 050538Z 0506/0606 31005KT P6SM VCSH SCT080
     FM050900 29006KT 4SM BR SCT050
     FM051300 27004KT P6SM OVC030
     FM051700 30005KT 4SM SHRA BR BKN015=



000
FTUS41 KRLX 050538
TAFEKN
TAF
KEKN 050538Z 0506/0606 31004KT P6SM OVC025
     FM050700 32004KT 4SM SHRA BR OVC015
     FM051100 31003KT 3SM SHRA BR OVC008
     FM052000 33005KT 3SM SHRA BR OVC015=



000
FTUS41 KRLX 050538
TAFBKW
TAF
KBKW 050538Z 0506/0606 29005KT P6SM BKN020 OVC035
     FM050700 31004KT 3SM SHRA OVC015
     FM050800 31005KT 2SM -SHRA BR BKN009
     FM051500 30007KT 3SM SHRA BKN012=



000
FTUS41 KRLX 050538
TAFCRW
TAF
KCRW 050538Z 0506/0606 30005KT 2SM -SHRA BR SCT008 BKN015
     FM050700 33005KT 4SM BR BKN008 BKN015
     FM051100 27006KT 5SM BR BKN030 OVC050
     FM051800 26005KT 5SM SHRA BR BKN015=



000
FTUS41 KRLX 050538
TAFPKB
TAF
KPKB 050538Z 0506/0606 29004KT 6SM -SHRA SCT008 BKN015 OVC025
     FM050800 VRB03KT 3SM SHRA BR BKN008 OVC015
     FM051700 35004KT 3SM SHRA BR OVC012=



000
FTUS41 KRLX 050538
TAFCKB
TAF
KCKB 050538Z 0506/0606 19004KT 3SM SHRA BKN015 BKN035 OVC050
     FM050800 30005KT 5SM SHRA OVC015
     FM051100 32005KT 5SM SHRA BR OVC007
     FM051800 01004KT 3SM SHRA BR OVC015=



000
FTUS41 KRLX 050538
TAFHTS
TAF
KHTS 050538Z 0506/0606 31005KT P6SM VCSH SCT080
     FM050900 29006KT 4SM BR SCT050
     FM051300 27004KT P6SM OVC030
     FM051700 30005KT 4SM SHRA BR BKN015=



000
FTUS41 KRLX 050538
TAFCRW
TAF
KCRW 050538Z 0506/0606 30005KT 2SM -SHRA BR SCT008 BKN015
     FM050700 33005KT 4SM BR BKN008 BKN015
     FM051100 27006KT 5SM BR BKN030 OVC050
     FM051800 26005KT 5SM SHRA BR BKN015=



000
FTUS41 KRLX 050538
TAFBKW
TAF
KBKW 050538Z 0506/0606 29005KT P6SM BKN020 OVC035
     FM050700 31004KT 3SM SHRA OVC015
     FM050800 31005KT 2SM -SHRA BR BKN009
     FM051500 30007KT 3SM SHRA BKN012=



000
FTUS41 KRLX 050538
TAFEKN
TAF
KEKN 050538Z 0506/0606 31004KT P6SM OVC025
     FM050700 32004KT 4SM SHRA BR OVC015
     FM051100 31003KT 3SM SHRA BR OVC008
     FM052000 33005KT 3SM SHRA BR OVC015=



000
FTUS41 KRLX 050538
TAFCKB
TAF
KCKB 050538Z 0506/0606 19004KT 3SM SHRA BKN015 BKN035 OVC050
     FM050800 30005KT 5SM SHRA OVC015
     FM051100 32005KT 5SM SHRA BR OVC007
     FM051800 01004KT 3SM SHRA BR OVC015=



000
FTUS41 KRLX 050538
TAFPKB
TAF
KPKB 050538Z 0506/0606 29004KT 6SM -SHRA SCT008 BKN015 OVC025
     FM050800 VRB03KT 3SM SHRA BR BKN008 OVC015
     FM051700 35004KT 3SM SHRA BR OVC012=



000
FTUS41 KRLX 050404 AAB
TAFCRW
TAF AMD
KCRW 050404Z 0504/0524 30004KT 2SM -SHRA BR BKN015
     FM050700 33005KT 5SM BR SCT008 BKN015
     FM051000 28005KT P6SM SHRA BKN008
     FM051500 26005KT 5SM SHRA BR BKN015
     FM051900 29005KT 3SM SHRA BR OVC015=



000
FTUS41 KRLX 050245 AAA
TAFEKN
TAF AMD
KEKN 050245Z 0503/0524 31004KT 3SM SHRA OVC020
     FM050700 32004KT 4SM SHRA BR OVC015
     FM051100 31003KT 3SM SHRA BR OVC008
     FM052000 33005KT 3SM SHRA BR OVC015=



000
FTUS41 KRLX 050245 AAA
TAFPKB
TAF AMD
KPKB 050245Z 0503/0524 29004KT 4SM SHRA OVC025
     FM050600 31004KT P6SM VCSH OVC025
     FM050900 VRB03KT 6SM SHRA BR OVC015
     FM051200 30004KT 3SM SHRA BR OVC007
     FM051700 35004KT 3SM SHRA BR OVC012=



000
FTUS41 KRLX 050245 AAA
TAFCRW
TAF AMD
KCRW 050245Z 0503/0524 25005KT 3SM SHRA OVC025
     FM050400 30004KT 6SM SHRA BKN015
     FM051000 28005KT P6SM SHRA BKN008
     FM051500 26005KT 5SM SHRA BR BKN015
     FM051900 29005KT 3SM SHRA BR OVC015=



000
FTUS41 KRLX 050245 AAA
TAFCKB
TAF AMD
KCKB 050245Z 0503/0524 19004KT 3SM SHRA BKN035
     FM050800 30005KT 5SM SHRA OVC015
     FM051100 32005KT 5SM SHRA BR OVC007
     FM051800 01004KT 3SM SHRA BR OVC015=



000
FTUS41 KRLX 050245 AAA
TAFBKW
TAF AMD
KBKW 050245Z 0503/0524 29005KT 6SM SHRA OVC035
     FM050400 31004KT 3SM SHRA OVC025
     FM050800 31005KT 5SM SHRA BR BKN009
     FM051500 30007KT 3SM SHRA BKN012=



000
FTUS41 KRLX 050245 AAA
TAFHTS
TAF AMD
KHTS 050245Z 0503/0524 31005KT P6SM VCSH BKN015
     FM051100 29006KT 6SM SHRA BR BKN008
     FM051600 30005KT 3SM SHRA BR BKN012=



000
FTUS41 KRLX 042330
TAFCKB
TAF
KCKB 042330Z 0500/0524 19004KT 6SM SHRA BKN045
     FM050400 30005KT 3SM SHRA OVC015
     FM051100 32005KT 5SM SHRA BR OVC007
     FM051800 01004KT 3SM SHRA BR OVC015=



000
FTUS41 KRLX 042330
TAFCRW
TAF
KCRW 042330Z 0500/0524 26006KT 5SM SHRA VCTS SCT025CB OVC035
     FM050200 28005KT 6SM SHRA OVC025
     FM050500 30004KT P6SM SHRA BKN015
     FM051000 28005KT P6SM SHRA BKN008
     FM051500 26005KT 5SM SHRA BR BKN015
     FM051900 29005KT 3SM SHRA BR OVC015=



000
FTUS41 KRLX 042330
TAFPKB
TAF
KPKB 042330Z 0500/0524 27005KT 5SM SHRA VCTS OVC035CB
     FM050200 29004KT 4SM SHRA OVC025
     FM050600 31004KT P6SM OVC025
     FM050900 VRB03KT 6SM SHRA BR OVC015
     FM051200 30004KT 3SM SHRA BR OVC007
     FM051700 35004KT 3SM SHRA BR OVC012=



000
FTUS41 KRLX 042330
TAFEKN
TAF
KEKN 042330Z 0500/0524 28004KT P6SM SHRA BKN040
     FM050300 31004KT 4SM SHRA OVC020
     FM050700 32004KT 3SM SHRA BR OVC015
     FM051100 31003KT 3SM SHRA BR OVC008
     FM052000 33005KT 3SM SHRA BR OVC015=



000
FTUS41 KRLX 042330
TAFHTS
TAF
KHTS 042330Z 0500/0524 29005KT 5SM SHRA VCTS OVC035CB
     FM050200 31006KT 6SM SHRA BR BKN025
     FM050500 31005KT P6SM BKN015
     FM051100 29006KT 6SM SHRA BR BKN008
     FM051600 30005KT 3SM SHRA BR BKN012=



000
FTUS41 KRLX 042330
TAFBKW
TAF
KBKW 042330Z 0500/0524 29005KT 6SM SHRA OVC050
     FM050200 31004KT 3SM SHRA OVC025
     FM050800 31005KT 5SM SHRA BR BKN009
     FM051500 30007KT 3SM SHRA BKN012=



000
FTUS41 KRLX 042330
TAFCRW
TAF
KCRW 042330Z 0500/0524 26006KT 5SM SHRA VCTS SCT025CB OVC035
     FM050200 28005KT 6SM SHRA OVC025
     FM050500 30004KT P6SM SHRA BKN015
     FM051000 28005KT P6SM SHRA BKN008
     FM051500 26005KT 5SM SHRA BR BKN015
     FM051900 29005KT 3SM SHRA BR OVC015=



000
FTUS41 KRLX 042330
TAFCKB
TAF
KCKB 042330Z 0500/0524 19004KT 6SM SHRA BKN045
     FM050400 30005KT 3SM SHRA OVC015
     FM051100 32005KT 5SM SHRA BR OVC007
     FM051800 01004KT 3SM SHRA BR OVC015=



000
FTUS41 KRLX 042330
TAFBKW
TAF
KBKW 042330Z 0500/0524 29005KT 6SM SHRA OVC050
     FM050200 31004KT 3SM SHRA OVC025
     FM050800 31005KT 5SM SHRA BR BKN009
     FM051500 30007KT 3SM SHRA BKN012=



000
FTUS41 KRLX 042330
TAFEKN
TAF
KEKN 042330Z 0500/0524 28004KT P6SM SHRA BKN040
     FM050300 31004KT 4SM SHRA OVC020
     FM050700 32004KT 3SM SHRA BR OVC015
     FM051100 31003KT 3SM SHRA BR OVC008
     FM052000 33005KT 3SM SHRA BR OVC015=



000
FTUS41 KRLX 042330
TAFHTS
TAF
KHTS 042330Z 0500/0524 29005KT 5SM SHRA VCTS OVC035CB
     FM050200 31006KT 6SM SHRA BR BKN025
     FM050500 31005KT P6SM BKN015
     FM051100 29006KT 6SM SHRA BR BKN008
     FM051600 30005KT 3SM SHRA BR BKN012=



000
FTUS41 KRLX 042330
TAFPKB
TAF
KPKB 042330Z 0500/0524 27005KT 5SM SHRA VCTS OVC035CB
     FM050200 29004KT 4SM SHRA OVC025
     FM050600 31004KT P6SM OVC025
     FM050900 VRB03KT 6SM SHRA BR OVC015
     FM051200 30004KT 3SM SHRA BR OVC007
     FM051700 35004KT 3SM SHRA BR OVC012=



000
FTUS41 KRLX 042031 AAB
TAFCRW
TAF AMD
KCRW 042031Z 0421/0518 24006KT P6SM VCSH BKN040
     FM042130 25005KT 3SM SHRA VCTS OVC040CB
     FM042300 25004KT 5SM SHRA VCTS OVC030CB
     FM050300 25005KT 3SM SHRA BR OVC025
     FM050500 27004KT P6SM BKN035
     FM050900 28003KT 5SM BR BKN035
     FM051300 28004KT P6SM BKN025
     FM051500 27005KT 2SM SHRA BR OVC008=



000
FTUS41 KRLX 042028 AAC
TAFHTS
TAF AMD
KHTS 042028Z 0420/0518 30007KT 3SM SHRA VCTS OVC035CB
     FM042100 24006KT 5SM SHRA VCTS OVC030CB
     FM050100 28005KT 4SM SHRA BKN030
     FM050300 28005KT P6SM BKN040
     FM051300 29006KT P6SM BKN035
     FM051600 30005KT 3SM SHRA BR OVC012=



000
FTUS41 KRLX 041908 AAB
TAFHTS
TAF AMD
KHTS 041908Z 0419/0518 24006KT P6SM VCTS BKN040CB
     FM042000 24007KT 6SM SHRA VCTS OVC035CB
     FM042300 24006KT 5SM SHRA VCTS OVC030CB
     FM050100 28005KT 4SM SHRA BKN030
     FM050300 28005KT P6SM BKN040
     FM051300 29006KT P6SM BKN035
     FM051600 30005KT 3SM SHRA BR OVC012=



000
FTUS41 KRLX 041907 AAB
TAFPKB
TAF AMD
KPKB 041907Z 0419/0518 22005KT P6SM VCTS BKN040CB
     FM042200 24006KT 6SM SHRA VCTS OVC040CB
     FM050000 24005KT 5SM SHRA VCTS OVC030CB
     FM050200 VRB03KT 4SM SHRA BR OVC030
     FM050400 27003KT P6SM BKN040
     FM050900 31004KT 5SM SHRA OVC015
     FM051300 35006KT 2SM SHRA BR OVC005=



000
FTUS41 KRLX 041907 AAB
TAFPKB
TAF AMD
KPKB 041907Z 0419/0518 22005KT P6SM VCTS BKN040CB
     FM042200 24006KT 6SM SHRA VCTS OVC040CB
     FM050000 24005KT 5SM SHRA VCTS OVC030CB
     FM050200 VRB03KT 4SM SHRA BR OVC030
     FM050400 27003KT P6SM BKN040
     FM050900 31004KT 5SM SHRA OVC015
     FM051300 35006KT 2SM SHRA BR OVC005=



000
FTUS41 KRLX 041905 AAB
TAFEKN
TAF AMD
KEKN 041905Z 0419/0518 28008KT P6SM VCSH BKN035
     FM050400 24003KT 6SM SHRA BKN035
     FM050500 23002KT 4SM SHRA BR OVC025
     FM050700 26003KT 4SM SHRA BR OVC015
     FM050800 00000KT 3SM SHRA BR OVC010
     FM051100 00000KT 1SM SHRA BR OVC005
     FM051400 31004KT 2SM SHRA HZ OVC007=



000
FTUS41 KRLX 041905 AAB
TAFBKW
TAF AMD
KBKW 041905Z 0419/0518 28008KT P6SM VCSH BKN040
     FM050100 26004KT 5SM SHRA VCTS OVC040CB
     FM050300 26004KT 4SM SHRA OVC025
     FM050700 24003KT 6SM BR OVC020
     FM051200 VRB03KT 1SM SHRA BR OVC004
     FM051500 31004KT 2SM SHRA HZ OVC006=



000
FTUS41 KRLX 041905 AAB
TAFBKW
TAF AMD
KBKW 041905Z 0419/0518 28008KT P6SM VCSH BKN040
     FM050100 26004KT 5SM SHRA VCTS OVC040CB
     FM050300 26004KT 4SM SHRA OVC025
     FM050700 24003KT 6SM BR OVC020
     FM051200 VRB03KT 1SM SHRA BR OVC004
     FM051500 31004KT 2SM SHRA HZ OVC006=



000
FTUS41 KRLX 041905 AAB
TAFEKN
TAF AMD
KEKN 041905Z 0419/0518 28008KT P6SM VCSH BKN035
     FM050400 24003KT 6SM SHRA BKN035
     FM050500 23002KT 4SM SHRA BR OVC025
     FM050700 26003KT 4SM SHRA BR OVC015
     FM050800 00000KT 3SM SHRA BR OVC010
     FM051100 00000KT 1SM SHRA BR OVC005
     FM051400 31004KT 2SM SHRA HZ OVC007=



000
FTUS41 KRLX 041810 RRA
TAFHTS
TAF
KHTS 041810Z 0418/0518 24006KT P6SM VCSH BKN040
     FM042100 24007KT 6SM SHRA VCTS OVC040CB
     FM042300 24006KT 5SM SHRA VCTS OVC030CB
     FM050100 28005KT 4SM SHRA BKN030
     FM050300 28005KT P6SM BKN040
     FM051300 29006KT P6SM BKN035
     FM051600 30005KT 3SM SHRA BR OVC012=



000
FTUS41 KRLX 041810 RRA
TAFEKN
TAF
KEKN 041810Z 0418/0518 28004KT P6SM VCSH BKN035
     FM050400 24003KT 6SM SHRA BKN035
     FM050500 23002KT 4SM SHRA BR OVC025
     FM050700 26003KT 4SM SHRA BR OVC015
     FM050800 00000KT 3SM SHRA BR OVC010
     FM051100 00000KT 1SM SHRA BR OVC005
     FM051400 31004KT 2SM SHRA HZ OVC007=



000
FTUS41 KRLX 041810 RRA
TAFCRW
TAF
KCRW 041810Z 0418/0518 24006KT P6SM VCSH BKN040
     FM042300 25005KT 6SM SHRA VCTS OVC040CB
     FM050100 25004KT 5SM SHRA VCTS OVC030CB
     FM050300 25005KT 3SM SHRA BR OVC025
     FM050500 27004KT P6SM BKN035
     FM050900 28003KT 5SM BR BKN035
     FM051300 28004KT P6SM BKN025
     FM051500 27005KT 2SM SHRA BR OVC008=



000
FTUS41 KRLX 041810 RRA
TAFPKB
TAF
KPKB 041810Z 0418/0518 22005KT P6SM VCSH BKN040
     FM042200 24006KT 6SM SHRA VCTS OVC040CB
     FM050000 24005KT 5SM SHRA VCTS OVC030CB
     FM050200 VRB03KT 4SM SHRA BR OVC030
     FM050400 27003KT P6SM BKN040
     FM050900 31004KT 5SM SHRA OVC015
     FM051300 35006KT 2SM SHRA BR OVC005=



000
FTUS41 KRLX 041810 RRA
TAFBKW
TAF
KBKW 041810Z 0418/0518 28006KT P6SM VCSH BKN040
     FM050100 26004KT 5SM SHRA VCTS OVC040CB
     FM050300 26004KT 4SM SHRA OVC025
     FM050700 24003KT 6SM BR OVC020
     FM051200 VRB03KT 1SM SHRA BR OVC004
     FM051500 31004KT 2SM SHRA HZ OVC006=



000
FTUS41 KRLX 041810 RRA
TAFPKB
TAF
KPKB 041810Z 0418/0518 22005KT P6SM VCSH BKN040
     FM042200 24006KT 6SM SHRA VCTS OVC040CB
     FM050000 24005KT 5SM SHRA VCTS OVC030CB
     FM050200 VRB03KT 4SM SHRA BR OVC030
     FM050400 27003KT P6SM BKN040
     FM050900 31004KT 5SM SHRA OVC015
     FM051300 35006KT 2SM SHRA BR OVC005=



000
FTUS41 KRLX 041810 RRA
TAFEKN
TAF
KEKN 041810Z 0418/0518 28004KT P6SM VCSH BKN035
     FM050400 24003KT 6SM SHRA BKN035
     FM050500 23002KT 4SM SHRA BR OVC025
     FM050700 26003KT 4SM SHRA BR OVC015
     FM050800 00000KT 3SM SHRA BR OVC010
     FM051100 00000KT 1SM SHRA BR OVC005
     FM051400 31004KT 2SM SHRA HZ OVC007=



000
FTUS41 KRLX 041810 RRA
TAFCRW
TAF
KCRW 041810Z 0418/0518 24006KT P6SM VCSH BKN040
     FM042300 25005KT 6SM SHRA VCTS OVC040CB
     FM050100 25004KT 5SM SHRA VCTS OVC030CB
     FM050300 25005KT 3SM SHRA BR OVC025
     FM050500 27004KT P6SM BKN035
     FM050900 28003KT 5SM BR BKN035
     FM051300 28004KT P6SM BKN025
     FM051500 27005KT 2SM SHRA BR OVC008=



000
FTUS41 KRLX 041810 RRA
TAFCKB
TAF
KCKB 041810Z 0418/0518 25004KT P6SM VCSH BKN035
     FM050200 24003KT 6SM SHRA VCTS OVC030CB
     FM050500 25003KT 5SM SHRA OVC025
     FM050600 26003KT 3SM SHRA BR OVC020
     FM051100 28004KT 2SM SHRA BR OVC010
     FM051300 31005KT 1SM SHRA HZ OVC005=



000
FTUS41 KRLX 041810 RRA
TAFHTS
TAF
KHTS 041810Z 0418/0518 24006KT P6SM VCSH BKN040
     FM042100 24007KT 6SM SHRA VCTS OVC040CB
     FM042300 24006KT 5SM SHRA VCTS OVC030CB
     FM050100 28005KT 4SM SHRA BKN030
     FM050300 28005KT P6SM BKN040
     FM051300 29006KT P6SM BKN035
     FM051600 30005KT 3SM SHRA BR OVC012=



000
FTUS41 KRLX 041810 RRA
TAFBKW
TAF
KBKW 041810Z 0418/0518 28006KT P6SM VCSH BKN040
     FM050100 26004KT 5SM SHRA VCTS OVC040CB
     FM050300 26004KT 4SM SHRA OVC025
     FM050700 24003KT 6SM BR OVC020
     FM051200 VRB03KT 1SM SHRA BR OVC004
     FM051500 31004KT 2SM SHRA HZ OVC006=



000
FTUS41 KRLX 041810 RRA
TAFCKB
TAF
KCKB 041810Z 0418/0518 25004KT P6SM VCSH BKN035
     FM050200 24003KT 6SM SHRA VCTS OVC030CB
     FM050500 25003KT 5SM SHRA OVC025
     FM050600 26003KT 3SM SHRA BR OVC020
     FM051100 28004KT 2SM SHRA BR OVC010
     FM051300 31005KT 1SM SHRA HZ OVC005=



000
FTUS41 KRLX 041644 AAB
TAFCKB
TAF AMD
KCKB 041644Z 0417/0512 24003KT P6SM -SHRA VCTS SCT010 BKN035CB
      TEMPO 0417/0418 3SM SHRA BKN015
     FM041900 23006KT P6SM BKN040
     FM050100 25005KT 6SM SHRA BR VCTS BKN040CB
     FM050300 25004KT 3SM SHRA VCTS SCT010 OVC020CB=



000
FTUS41 KRLX 041644 AAB
TAFCKB
TAF AMD
KCKB 041644Z 0417/0512 24003KT P6SM -SHRA VCTS SCT010 BKN035CB
      TEMPO 0417/0418 3SM SHRA BKN015
     FM041900 23006KT P6SM BKN040
     FM050100 25005KT 6SM SHRA BR VCTS BKN040CB
     FM050300 25004KT 3SM SHRA VCTS SCT010 OVC020CB=



000
FTUS41 KRLX 041451 AAA
TAFCKB
TAF AMD
KCKB 041451Z 0415/0512 24003KT P6SM -SHRA SCT010 BKN025
      TEMPO 0415/0417 4SM SHRA BKN010
     FM041800 23006KT P6SM BKN040
     FM050100 25005KT 6SM SHRA BR VCTS BKN040CB
     FM050300 25004KT 3SM SHRA VCTS SCT010 OVC020CB=



000
FTUS41 KRLX 041451 AAA
TAFCRW
TAF AMD
KCRW 041451Z 0415/0512 24003KT P6SM SCT010 BKN020
      TEMPO 0415/0416 BKN010
     FM041600 24006KT P6SM BKN040
     FM042300 24006KT 6SM -SHRA VCTS BKN040CB
     FM050100 25004KT 4SM SHRA BR VCTS OVC025CB
     FM050800 26003KT 5SM BR SCT020 BKN035=



000
FTUS41 KRLX 041451 AAA
TAFBKW
TAF AMD
KBKW 041451Z 0415/0512 26005KT P6SM SCT008 BKN015 BKN050
     FM041600 27006KT P6SM BKN025
     FM050000 25006KT 6SM SHRA BR VCTS BKN040CB
     FM050200 25004KT 3SM SHRA VCTS OVC020CB=



000
FTUS41 KRLX 041451 AAA
TAFEKN
TAF AMD
KEKN 041451Z 0415/0512 00000KT P6SM SCT005 BKN015
     FM041900 28004KT P6SM BKN035
     FM050300 25005KT 6SM SHRA BR VCTS BKN040CB
     FM050500 25004KT 3SM SHRA VCTS SCT010 OVC020CB=



000
FTUS41 KRLX 041451 AAA
TAFPKB
TAF AMD
KPKB 041451Z 0415/0512 24005KT P6SM BKN040
     FM042200 21005KT 6SM SHRA VCTS BKN040CB
     FM050000 25005KT 4SM SHRA BR VCTS OVC025CB
      AMD NOT SKED=



000
FTUS41 KRLX 041451 AAA
TAFHTS
TAF AMD
KHTS 041451Z 0415/0512 24005KT P6SM BKN040
     FM042100 24007KT 6SM -SHRA VCTS BKN040CB
     FM042300 25006KT 4SM SHRA BR VCTS OVC025CB
     FM050200 26005KT P6SM BKN040=



000
FTUS41 KRLX 041130
TAFHTS
TAF
KHTS 041130Z 0412/0512 00000KT 6SM BR SCT009 BKN015 OVC050
     FM041500 VRB05KT P6SM BKN040
     FM042100 24007KT 6SM -SHRA VCTS BKN040CB
     FM042300 25006KT 3SM SHRA BR VCTS OVC025CB=



000
FTUS41 KRLX 041130
TAFPKB
TAF
KPKB 041130Z 0412/0512 00000KT P6SM SCT015 BKN025
     FM041500 VRB03KT P6SM BKN035
     FM042200 21005KT 6SM SHRA BR VCTS BKN040CB
      AMD NOT SKED=



000
FTUS41 KRLX 041130
TAFPKB
TAF
KPKB 041130Z 0412/0512 00000KT P6SM SCT015 BKN025
     FM041500 VRB03KT P6SM BKN035
     FM042200 21005KT 6SM SHRA BR VCTS BKN040CB
      AMD NOT SKED=



000
FTUS41 KRLX 041130
TAFCKB
TAF
KCKB 041130Z 0412/0512 VRB03KT P6SM SCT007 BKN020 OVC050
     FM041600 VRB03KT P6SM BKN035
     FM050000 VRB03KT 5SM SHRA BR OVC040=



000
FTUS41 KRLX 041130
TAFHTS
TAF
KHTS 041130Z 0412/0512 00000KT 6SM BR SCT009 BKN015 OVC050
     FM041500 VRB05KT P6SM BKN040
     FM042100 24007KT 6SM -SHRA VCTS BKN040CB
     FM042300 25006KT 3SM SHRA BR VCTS OVC025CB=



000
FTUS41 KRLX 041130
TAFEKN
TAF
KEKN 041130Z 0412/0512 00000KT P6SM FEW005 BKN035
     FM041300 00000KT P6SM SCT005 BKN015
     FM041900 28004KT P6SM BKN035
     FM050700 00000KT 5SM -SHRA OVC025=



000
FTUS41 KRLX 041130
TAFCRW
TAF
KCRW 041130Z 0412/0512 VRB03KT 6SM BR BKN007 BKN015 OVC025
      TEMPO 0412/0413 4SM -SHRA BR OVC005
     FM041400 VRB03KT P6SM SCT010 BKN020
     FM041700 24006KT P6SM BKN040
     FM042300 24006KT P6SM -SHRA VCTS BKN040CB
     FM050200 25004KT 4SM SHRA BR VCTS OVC025CB=



000
FTUS41 KRLX 041130
TAFCKB
TAF
KCKB 041130Z 0412/0512 VRB03KT P6SM SCT007 BKN020 OVC050
     FM041600 VRB03KT P6SM BKN035
     FM050000 VRB03KT 5SM SHRA BR OVC040=



000
FTUS41 KRLX 041130
TAFEKN
TAF
KEKN 041130Z 0412/0512 00000KT P6SM FEW005 BKN035
     FM041300 00000KT P6SM SCT005 BKN015
     FM041900 28004KT P6SM BKN035
     FM050700 00000KT 5SM -SHRA OVC025=



000
FTUS41 KRLX 041130
TAFCRW
TAF
KCRW 041130Z 0412/0512 VRB03KT 6SM BR BKN007 BKN015 OVC025
      TEMPO 0412/0413 4SM -SHRA BR OVC005
     FM041400 VRB03KT P6SM SCT010 BKN020
     FM041700 24006KT P6SM BKN040
     FM042300 24006KT P6SM -SHRA VCTS BKN040CB
     FM050200 25004KT 4SM SHRA BR VCTS OVC025CB=



000
FTUS41 KRLX 041127
TAFBKW
TAF
KBKW 041127Z 0412/0512 VRB03KT P6SM BKN006 OVC050
      TEMPO 0412/0414 5SM -SHRA OVC006
     FM041400 26005KT P6SM SCT008 BKN015 BKN050
     FM041600 27006KT P6SM BKN025
     FM050000 27006KT 6SM SHRA BR VCTS BKN040CB=



000
FTUS41 KRLX 041127
TAFBKW
TAF
KBKW 041127Z 0412/0512 VRB03KT P6SM BKN006 OVC050
      TEMPO 0412/0414 5SM -SHRA OVC006
     FM041400 26005KT P6SM SCT008 BKN015 BKN050
     FM041600 27006KT P6SM BKN025
     FM050000 27006KT 6SM SHRA BR VCTS BKN040CB=



000
FTUS41 KRLX 040907 AAA
TAFHTS
TAF AMD
KHTS 040907Z 0409/0506 00000KT 6SM BR SCT009 BKN025 OVC050
      TEMPO 0409/0412 BKN009 BKN025 OVC050
     FM041300 VRB05KT P6SM BKN040
     FM042000 24007KT 6SM -SHRA VCTS BKN040CB
     FM042300 25006KT 3SM SHRA BR VCTS OVC025CB=



000
FTUS41 KRLX 040907 AAB
TAFCKB
TAF AMD
KCKB 040907Z 0409/0506 VRB03KT 5SM -SHRA BR SCT007 OVC050
      TEMPO 0409/0412 OVC007
     FM041400 VRB03KT P6SM BKN035=



000
FTUS41 KRLX 040907 AAA
TAFBKW
TAF AMD
KBKW 040907Z 0409/0506 VRB03KT P6SM SCT007 BKN040 OVC060
      TEMPO 0409/0412 BKN007 BKN040 OVC060
     FM041400 26005KT P6SM BKN015
     FM041600 27006KT P6SM BKN025
     FM042200 27006KT 6SM SHRA BR VCTS BKN040CB=



000
FTUS41 KRLX 040907 AAA
TAFEKN
TAF AMD
KEKN 040907Z 0409/0506 00000KT 5SM -SHRA BR FEW005 BKN050
     FM041100 00000KT 3SM BR BKN005 OVC050
     FM041600 VRB03KT P6SM BKN025=



000
FTUS41 KRLX 040907 AAA
TAFCRW
TAF AMD
KCRW 040907Z 0409/0506 VRB03KT 6SM BR SCT007 BKN015 OVC025
      TEMPO 0409/0412 BKN007 BKN015 OVC025
     FM042200 24006KT P6SM -SHRA VCTS BKN040CB
     FM050200 25004KT 4SM SHRA BR VCTS OVC025CB=



000
FTUS41 KRLX 040729 AAA
TAFCKB
TAF AMD
KCKB 040729Z 0407/0506 VRB03KT P6SM BKN008 OVC050
     FM041400 VRB03KT P6SM BKN035=



000
FTUS41 KRLX 040729 AAA
TAFCKB
TAF AMD
KCKB 040729Z 0407/0506 VRB03KT P6SM BKN008 OVC050
     FM041400 VRB03KT P6SM BKN035=



000
FTUS41 KRLX 040532
TAFCRW
TAF
KCRW 040532Z 0406/0506 VRB03KT 6SM BR BKN015 OVC025
      TEMPO 0406/0410 3SM BR
     FM042200 24006KT P6SM -SHRA VCTS BKN040CB
     FM050200 25004KT 4SM SHRA BR VCTS OVC025CB=



000
FTUS41 KRLX 040532
TAFCKB
TAF
KCKB 040532Z 0406/0506 00000KT P6SM SCT030 BKN050 OVC080
     FM040800 00000KT 5SM BR BKN015
     FM041400 VRB03KT P6SM BKN025=



000
FTUS41 KRLX 040532
TAFHTS
TAF
KHTS 040532Z 0406/0506 00000KT 6SM BR BKN015
      TEMPO 0406/0409 3SM BR SCT015
     FM041300 VRB05KT P6SM BKN040
     FM042000 24007KT 6SM -SHRA VCTS BKN040CB
     FM042300 25006KT 3SM SHRA BR VCTS OVC025CB=



000
FTUS41 KRLX 040532
TAFBKW
TAF
KBKW 040532Z 0406/0506 VRB03KT P6SM SCT008 BKN040
     FM040800 VRB03KT 2SM BR OVC006
     FM041400 26005KT P6SM BKN015
     FM041600 27006KT P6SM BKN025
     FM042200 27006KT 6SM SHRA BR VCTS BKN040CB=



000
FTUS41 KRLX 040532
TAFPKB
TAF
KPKB 040532Z 0406/0506 00000KT P6SM SCT015 BKN025
      TEMPO 0406/0409 3SM BR SCT025
     FM041300 00000KT 6SM BR SCT015 BKN025
     FM041500 VRB03KT P6SM BKN035
     FM042200 21005KT 6SM SHRA BR VCTS BKN040CB
      AMD NOT SKED=



000
FTUS41 KRLX 040532
TAFEKN
TAF
KEKN 040532Z 0406/0506 00000KT 1/2SM FG OVC002
     FM041400 00000KT 3SM BR BKN005
     FM041600 VRB03KT P6SM BKN025=



000
FTUS41 KRLX 040532
TAFPKB
TAF
KPKB 040532Z 0406/0506 00000KT P6SM SCT015 BKN025
      TEMPO 0406/0409 3SM BR SCT025
     FM041300 00000KT 6SM BR SCT015 BKN025
     FM041500 VRB03KT P6SM BKN035
     FM042200 21005KT 6SM SHRA BR VCTS BKN040CB
      AMD NOT SKED=



000
FTUS41 KRLX 040532
TAFCRW
TAF
KCRW 040532Z 0406/0506 VRB03KT 6SM BR BKN015 OVC025
      TEMPO 0406/0410 3SM BR
     FM042200 24006KT P6SM -SHRA VCTS BKN040CB
     FM050200 25004KT 4SM SHRA BR VCTS OVC025CB=



000
FTUS41 KRLX 040532
TAFHTS
TAF
KHTS 040532Z 0406/0506 00000KT 6SM BR BKN015
      TEMPO 0406/0409 3SM BR SCT015
     FM041300 VRB05KT P6SM BKN040
     FM042000 24007KT 6SM -SHRA VCTS BKN040CB
     FM042300 25006KT 3SM SHRA BR VCTS OVC025CB=



000
FTUS41 KRLX 040532
TAFBKW
TAF
KBKW 040532Z 0406/0506 VRB03KT P6SM SCT008 BKN040
     FM040800 VRB03KT 2SM BR OVC006
     FM041400 26005KT P6SM BKN015
     FM041600 27006KT P6SM BKN025
     FM042200 27006KT 6SM SHRA BR VCTS BKN040CB=



000
FTUS41 KRLX 040532
TAFEKN
TAF
KEKN 040532Z 0406/0506 00000KT 1/2SM FG OVC002
     FM041400 00000KT 3SM BR BKN005
     FM041600 VRB03KT P6SM BKN025=



000
FTUS41 KRLX 040532
TAFCKB
TAF
KCKB 040532Z 0406/0506 00000KT P6SM SCT030 BKN050 OVC080
     FM040800 00000KT 5SM BR BKN015
     FM041400 VRB03KT P6SM BKN025=



000
FTUS41 KRLX 040240 AAA
TAFCKB
TAF AMD
KCKB 040240Z 0403/0424 VRB03KT P6SM BKN040
     FM040500 00000KT P6SM BKN025
     FM040700 00000KT 6SM BR BKN015
     FM041400 VRB03KT P6SM BKN025=



000
FTUS41 KRLX 040240 AAA
TAFCRW
TAF AMD
KCRW 040240Z 0403/0424 VRB03KT 6SM BR BKN035
      TEMPO 0403/0406 3SM BR SCT035
     FM040600 00000KT 6SM BR BKN015
      TEMPO 0406/0410 3SM BR SCT015 SCT035
     FM041000 00000KT 5SM BR BKN015
     FM041400 VRB03KT P6SM BKN025
     FM042000 24006KT P6SM SHRA VCTS BKN040CB
     FM042300 25004KT 5SM SHRA BR VCTS OVC035CB=



000
FTUS41 KRLX 040240 AAA
TAFPKB
TAF AMD
KPKB 040240Z 0403/0424 VRB03KT P6SM SCT025 BKN040
     FM040500 00000KT P6SM SCT015 BKN025
      TEMPO 0405/0409 3SM BR SCT025
     FM040900 00000KT 5SM BR SCT015 BKN025
     FM041300 00000KT 6SM BR SCT015 BKN025
     FM041500 VRB03KT P6SM BKN035
     FM042000 21005KT 6SM SHRA BR VCTS BKN040CB
      AMD NOT SKED=



000
FTUS41 KRLX 040240 AAB
TAFEKN
TAF AMD
KEKN 040240Z 0403/0424 VRB03KT P6SM SCT015 BKN025
      TEMPO 0403/0405 BKN015
     FM040500 00000KT P6SM BKN015
     FM040700 00000KT 4SM BR BKN008
     FM041400 00000KT P6SM BKN015
     FM041600 VRB03KT P6SM BKN025=



000
FTUS41 KRLX 040240 AAA
TAFHTS
TAF AMD
KHTS 040240Z 0403/0424 VRB03KT P6SM BKN035
     FM040500 00000KT 6SM BR SCT040
      TEMPO 0405/0409 3SM BR SCT025
     FM040900 00000KT 5SM BR BKN025
     FM041300 00000KT P6SM BKN040
     FM041800 24007KT P6SM SHRA VCTS BKN040CB
     FM042100 24007KT 5SM SHRA BR VCTS OVC040CB
     FM042300 25006KT P6SM SHRA VCTS OVC025CB=



000
FTUS41 KRLX 040240 AAC
TAFBKW
TAF AMD
KBKW 040240Z 0403/0424 34005KT P6SM SCT008 BKN035
      TEMPO 0403/0407 3SM -SHRA BR SCT008 BKN012 BKN025
     FM040700 VRB03KT 6SM BR BKN008
      TEMPO 0407/0411 3SM BR SCT015 SCT025 BKN050
     FM041400 26005KT P6SM BKN015
     FM041600 27006KT P6SM BKN025
     FM042200 27006KT 6SM SHRA BR VCTS BKN040CB=



000
FTUS41 KRLX 040240 AAA
TAFHTS
TAF AMD
KHTS 040240Z 0403/0424 VRB03KT P6SM BKN035
     FM040500 00000KT 6SM BR SCT040
      TEMPO 0405/0409 3SM BR SCT025
     FM040900 00000KT 5SM BR BKN025
     FM041300 00000KT P6SM BKN040
     FM041800 24007KT P6SM SHRA VCTS BKN040CB
     FM042100 24007KT 5SM SHRA BR VCTS OVC040CB
     FM042300 25006KT P6SM SHRA VCTS OVC025CB=



000
FTUS41 KRLX 040240 AAC
TAFBKW
TAF AMD
KBKW 040240Z 0403/0424 34005KT P6SM SCT008 BKN035
      TEMPO 0403/0407 3SM -SHRA BR SCT008 BKN012 BKN025
     FM040700 VRB03KT 6SM BR BKN008
      TEMPO 0407/0411 3SM BR SCT015 SCT025 BKN050
     FM041400 26005KT P6SM BKN015
     FM041600 27006KT P6SM BKN025
     FM042200 27006KT 6SM SHRA BR VCTS BKN040CB=



000
FTUS41 KRLX 040240 AAB
TAFEKN
TAF AMD
KEKN 040240Z 0403/0424 VRB03KT P6SM SCT015 BKN025
      TEMPO 0403/0405 BKN015
     FM040500 00000KT P6SM BKN015
     FM040700 00000KT 4SM BR BKN008
     FM041400 00000KT P6SM BKN015
     FM041600 VRB03KT P6SM BKN025=



000
FTUS41 KRLX 040240 AAA
TAFPKB
TAF AMD
KPKB 040240Z 0403/0424 VRB03KT P6SM SCT025 BKN040
     FM040500 00000KT P6SM SCT015 BKN025
      TEMPO 0405/0409 3SM BR SCT025
     FM040900 00000KT 5SM BR SCT015 BKN025
     FM041300 00000KT 6SM BR SCT015 BKN025
     FM041500 VRB03KT P6SM BKN035
     FM042000 21005KT 6SM SHRA BR VCTS BKN040CB
      AMD NOT SKED=



000
FTUS41 KRLX 040240 AAA
TAFCKB
TAF AMD
KCKB 040240Z 0403/0424 VRB03KT P6SM BKN040
     FM040500 00000KT P6SM BKN025
     FM040700 00000KT 6SM BR BKN015
     FM041400 VRB03KT P6SM BKN025=



000
FTUS41 KRLX 040240 AAA
TAFCRW
TAF AMD
KCRW 040240Z 0403/0424 VRB03KT 6SM BR BKN035
      TEMPO 0403/0406 3SM BR SCT035
     FM040600 00000KT 6SM BR BKN015
      TEMPO 0406/0410 3SM BR SCT015 SCT035
     FM041000 00000KT 5SM BR BKN015
     FM041400 VRB03KT P6SM BKN025
     FM042000 24006KT P6SM SHRA VCTS BKN040CB
     FM042300 25004KT 5SM SHRA BR VCTS OVC035CB=



000
FTUS41 KRLX 040056 AAB
TAFBKW
TAF AMD
KBKW 040056Z 0401/0424 34008KT P6SM BKN025
      TEMPO 0401/0403 3SM -SHRA BR SCT008 BKN012
     FM040300 34005KT P6SM BKN015
     FM040500 VRB03KT P6SM BKN008
     FM040700 VRB03KT 4SM BR BKN008
     FM041400 26005KT P6SM BKN015
     FM041600 27006KT P6SM BKN025
     FM042200 27006KT 6SM SHRA BR VCTS BKN040CB=



000
FTUS41 KRLX 040056 AAB
TAFBKW
TAF AMD
KBKW 040056Z 0401/0424 34008KT P6SM BKN025
      TEMPO 0401/0403 3SM -SHRA BR SCT008 BKN012
     FM040300 34005KT P6SM BKN015
     FM040500 VRB03KT P6SM BKN008
     FM040700 VRB03KT 4SM BR BKN008
     FM041400 26005KT P6SM BKN015
     FM041600 27006KT P6SM BKN025
     FM042200 27006KT 6SM SHRA BR VCTS BKN040CB=



000
FTUS41 KRLX 040055 AAA
TAFEKN
TAF AMD
KEKN 040055Z 0401/0424 30004KT P6SM BKN025
      TEMPO 0401/0403 BKN015
     FM040300 00000KT P6SM BKN015
     FM040500 00000KT P6SM BKN010
     FM040700 00000KT 4SM BR BKN008
     FM041300 00000KT 4SM BR BKN010
     FM041400 00000KT P6SM BKN015
     FM041600 VRB03KT P6SM BKN025=



000
FTUS41 KRLX 040055 AAA
TAFEKN
TAF AMD
KEKN 040055Z 0401/0424 30004KT P6SM BKN025
      TEMPO 0401/0403 BKN015
     FM040300 00000KT P6SM BKN015
     FM040500 00000KT P6SM BKN010
     FM040700 00000KT 4SM BR BKN008
     FM041300 00000KT 4SM BR BKN010
     FM041400 00000KT P6SM BKN015
     FM041600 VRB03KT P6SM BKN025=



000
FTUS41 KRLX 040051 AAA
TAFBKW
TAF AMD
KBKW 040051Z 0401/0424 34008KT P6SM SCT025 BKN050
      TEMPO 0401/0403 SCT015 BKN025
     FM040300 34005KT P6SM BKN015
     FM040500 VRB03KT P6SM BKN008
     FM040700 VRB03KT 4SM BR BKN008
     FM041400 26005KT P6SM BKN015
     FM041600 27006KT P6SM BKN025
     FM042200 27006KT 6SM SHRA BR VCTS BKN040CB=



000
FTUS41 KRLX 040051 AAA
TAFBKW
TAF AMD
KBKW 040051Z 0401/0424 34008KT P6SM SCT025 BKN050
      TEMPO 0401/0403 SCT015 BKN025
     FM040300 34005KT P6SM BKN015
     FM040500 VRB03KT P6SM BKN008
     FM040700 VRB03KT 4SM BR BKN008
     FM041400 26005KT P6SM BKN015
     FM041600 27006KT P6SM BKN025
     FM042200 27006KT 6SM SHRA BR VCTS BKN040CB=



000
FTUS41 KRLX 032336
TAFEKN
TAF
KEKN 032336Z 0400/0424 30004KT P6SM BKN025
     FM040300 00000KT P6SM BKN015
     FM040500 00000KT P6SM BKN010
     FM040700 00000KT 4SM BR BKN008
     FM041300 00000KT 4SM BR BKN010
     FM041400 00000KT P6SM BKN015
     FM041600 VRB03KT P6SM BKN025=



000
FTUS41 KRLX 032336
TAFPKB
TAF
KPKB 032336Z 0400/0424 29004KT P6SM SCT020 BKN040
     FM040500 00000KT P6SM SCT015 BKN025
     FM040800 00000KT 5SM BR SCT015 BKN025
     FM041300 00000KT 6SM BR SCT015 BKN025
     FM041500 VRB03KT P6SM BKN035
     FM042000 21005KT 6SM SHRA BR VCTS BKN040CB
      AMD NOT SKED=



000
FTUS41 KRLX 032336
TAFCRW
TAF
KCRW 032336Z 0400/0424 VRB03KT P6SM SCT015 BKN035
      TEMPO 0401/0405 BKN015
     FM040500 00000KT P6SM BKN015
     FM041000 00000KT 5SM BR BKN015
     FM041400 VRB03KT P6SM BKN025
     FM042000 24006KT P6SM SHRA VCTS BKN040CB
     FM042300 25004KT 5SM SHRA BR VCTS OVC035CB=



000
FTUS41 KRLX 032336
TAFCKB
TAF
KCKB 032336Z 0400/0424 27004KT P6SM BKN040
     FM040500 00000KT P6SM BKN025
     FM040700 00000KT 6SM BR BKN015
     FM041400 VRB03KT P6SM BKN025=



000
FTUS41 KRLX 032336
TAFBKW
TAF
KBKW 032336Z 0400/0424 32006KT P6SM SCT025 BKN050
     FM040300 31005KT P6SM BKN015
     FM040500 VRB03KT P6SM BKN008
     FM040700 VRB03KT 4SM BR BKN008
     FM041400 26005KT P6SM BKN015
     FM041600 27006KT P6SM BKN025
     FM042200 27006KT 6SM SHRA BR VCTS BKN040CB=



000
FTUS41 KRLX 032336
TAFHTS
TAF
KHTS 032336Z 0400/0424 30004KT P6SM BKN035
     FM040500 00000KT 6SM BR SCT040
     FM040900 00000KT 5SM BR BKN025
     FM041300 00000KT 6SM BR BKN025
     FM041400 23006KT P6SM BKN040
     FM041800 24007KT P6SM SHRA VCTS BKN040CB
     FM042100 24007KT 5SM SHRA BR VCTS OVC040CB
     FM042300 25006KT P6SM SHRA VCTS OVC025CB=



000
FTUS41 KRLX 032336
TAFBKW
TAF
KBKW 032336Z 0400/0424 32006KT P6SM SCT025 BKN050
     FM040300 31005KT P6SM BKN015
     FM040500 VRB03KT P6SM BKN008
     FM040700 VRB03KT 4SM BR BKN008
     FM041400 26005KT P6SM BKN015
     FM041600 27006KT P6SM BKN025
     FM042200 27006KT 6SM SHRA BR VCTS BKN040CB=



000
FTUS41 KRLX 032336
TAFCKB
TAF
KCKB 032336Z 0400/0424 27004KT P6SM BKN040
     FM040500 00000KT P6SM BKN025
     FM040700 00000KT 6SM BR BKN015
     FM041400 VRB03KT P6SM BKN025=



000
FTUS41 KRLX 032336
TAFHTS
TAF
KHTS 032336Z 0400/0424 30004KT P6SM BKN035
     FM040500 00000KT 6SM BR SCT040
     FM040900 00000KT 5SM BR BKN025
     FM041300 00000KT 6SM BR BKN025
     FM041400 23006KT P6SM BKN040
     FM041800 24007KT P6SM SHRA VCTS BKN040CB
     FM042100 24007KT 5SM SHRA BR VCTS OVC040CB
     FM042300 25006KT P6SM SHRA VCTS OVC025CB=



000
FTUS41 KRLX 032336
TAFCRW
TAF
KCRW 032336Z 0400/0424 VRB03KT P6SM SCT015 BKN035
      TEMPO 0401/0405 BKN015
     FM040500 00000KT P6SM BKN015
     FM041000 00000KT 5SM BR BKN015
     FM041400 VRB03KT P6SM BKN025
     FM042000 24006KT P6SM SHRA VCTS BKN040CB
     FM042300 25004KT 5SM SHRA BR VCTS OVC035CB=



000
FTUS41 KRLX 032336
TAFEKN
TAF
KEKN 032336Z 0400/0424 30004KT P6SM BKN025
     FM040300 00000KT P6SM BKN015
     FM040500 00000KT P6SM BKN010
     FM040700 00000KT 4SM BR BKN008
     FM041300 00000KT 4SM BR BKN010
     FM041400 00000KT P6SM BKN015
     FM041600 VRB03KT P6SM BKN025=



000
FTUS41 KRLX 032336
TAFPKB
TAF
KPKB 032336Z 0400/0424 29004KT P6SM SCT020 BKN040
     FM040500 00000KT P6SM SCT015 BKN025
     FM040800 00000KT 5SM BR SCT015 BKN025
     FM041300 00000KT 6SM BR SCT015 BKN025
     FM041500 VRB03KT P6SM BKN035
     FM042000 21005KT 6SM SHRA BR VCTS BKN040CB
      AMD NOT SKED=



000
FTUS41 KRLX 031744
TAFBKW
TAF
KBKW 031744Z 0318/0418 29007KT P6SM -SHRA BKN015
      TEMPO 0318/0320 5SM -SHRA BKN010
     FM032100 31008KT P6SM BKN025
     FM032300 32007KT P6SM BKN035
     FM040400 VRB03KT P6SM BKN010
     FM040500 VRB03KT 4SM BR BKN008
     FM040900 00000KT 3SM BR BKN003
     FM041400 26005KT P6SM BKN025
     FM041600 27006KT P6SM BKN035=



000
FTUS41 KRLX 031744
TAFEKN
TAF
KEKN 031744Z 0318/0418 30006KT P6SM -SHRA BKN025
     FM032200 29006KT P6SM BKN035
     FM040200 VRB03KT P6SM BKN030
     FM040500 00000KT 5SM BR BKN010
     FM040700 00000KT 2SM BR BKN008
     FM041400 00000KT 4SM BR BKN015
     FM041500 VRB02KT P6SM BKN025
     FM041600 24003KT P6SM BKN035=



000
FTUS41 KRLX 031744
TAFCRW
TAF
KCRW 031744Z 0318/0418 31006KT P6SM -SHRA SCT020 OVC030
      TEMPO 0318/0321 5SM -SHRA BKN020
     FM032200 30003KT P6SM BKN035
     FM040600 VRB02KT 6SM BR BKN030
     FM041000 00000KT 4SM BR BKN020
     FM041300 00000KT 6SM BR BKN025
     FM041500 VRB03KT P6SM BKN035=



000
FTUS41 KRLX 031744
TAFCKB
TAF
KCKB 031744Z 0318/0418 29005KT P6SM -SHRA BKN030
     FM032000 28006KT P6SM BKN035
     FM040300 VRB02KT P6SM BKN035
     FM040600 00000KT P6SM BKN020
     FM040700 00000KT 6SM BR BKN020
     FM040900 00000KT 4SM BR BKN020
     FM041300 00000KT 6SM BR BKN025
     FM041500 VRB03KT P6SM BKN035=



000
FTUS41 KRLX 031744
TAFPKB
TAF
KPKB 031744Z 0318/0418 31004KT P6SM -SHRA SCT025 OVC035
      TEMPO 0318/0320 BKN025
     FM040500 00000KT 6SM BR BKN040
     FM040800 00000KT 4SM BR BKN035
     FM041300 00000KT P6SM BKN040
     FM041400 VRB03KT P6SM SCT040
     FM041500 23006KT P6SM BKN045=



000
FTUS41 KRLX 031744
TAFHTS
TAF
KHTS 031744Z 0318/0418 31004KT P6SM -SHRA SCT025 OVC035
      TEMPO 0318/0320 6SM -SHRA BKN020
     FM040500 00000KT 6SM BR BKN040
     FM040800 00000KT 4SM BR BKN035
     FM041300 00000KT P6SM BKN040
     FM041400 VRB03KT P6SM SCT040
     FM041500 23006KT P6SM BKN045=



000
FTUS41 KRLX 031413 CCA
TAFBKW
TAF COR
KBKW 031413Z 0314/0412 28005KT P6SM SCT007 OVC015
      TEMPO 0314/0316 6SM -SHRA BKN007
     FM032000 31008KT P6SM BKN020=



000
FTUS41 KRLX 031406 AAA
TAFEKN
TAF AMD
KEKN 031406Z 0314/0412 34003KT P6SM SCT008 OVC015
     FM031800 31006KT P6SM OVC020
     FM032000 31007KT P6SM BKN025=



000
FTUS41 KRLX 031406 AAA
TAFCRW
TAF AMD
KCRW 031406Z 0314/0412 VRB03KT P6SM BKN008 OVC015
     FM031800 27004KT P6SM BKN020
     FM031900 28005KT P6SM BKN025
     FM032100 29006KT P6SM BKN035=



000
FTUS41 KRLX 031406 AAA
TAFBKW
TAF AMD
KBKW 031406Z 0314/0412 28005KT P6SM SCT007 OVC015
      TEMPO 0314/0317 BKN007
     FM032000 31008KT P6SM BKN020=



000
FTUS41 KRLX 031406 AAA
TAFCKB
TAF AMD
KCKB 031406Z 0314/0412 30003KT P6SM SCT008 OVC020
     FM031800 32005KT P6SM BKN012 OVC025
     FM032000 30006KT P6SM BKN025 OVC035=



000
FTUS41 KRLX 031406 AAA
TAFHTS
TAF AMD
KHTS 031406Z 0314/0412 27003KT P6SM BKN008 OVC015
     FM031700 28004KT P6SM BKN020
     FM031800 30006KT P6SM BKN035
     FM032100 31007KT P6SM BKN040=



000
FTUS41 KRLX 031406 AAA
TAFPKB
TAF AMD
KPKB 031406Z 0314/0412 33005KT P6SM SCT015 OVC035
     FM031800 31007KT P6SM BKN040
      AMD NOT SKED=



000
FTUS41 KRLX 031406 AAA
TAFCKB
TAF AMD
KCKB 031406Z 0314/0412 30003KT P6SM SCT008 OVC020
     FM031800 32005KT P6SM BKN012 OVC025
     FM032000 30006KT P6SM BKN025 OVC035=



000
FTUS41 KRLX 031406 AAA
TAFBKW
TAF AMD
KBKW 031406Z 0314/0412 28005KT P6SM SCT007 OVC015
      TEMPO 0314/0317 BKN007
     FM032000 31008KT P6SM BKN020=



000
FTUS41 KRLX 031406 AAA
TAFEKN
TAF AMD
KEKN 031406Z 0314/0412 34003KT P6SM SCT008 OVC015
     FM031800 31006KT P6SM OVC020
     FM032000 31007KT P6SM BKN025=



000
FTUS41 KRLX 031406 AAA
TAFPKB
TAF AMD
KPKB 031406Z 0314/0412 33005KT P6SM SCT015 OVC035
     FM031800 31007KT P6SM BKN040
      AMD NOT SKED=



000
FTUS41 KRLX 031406 AAA
TAFHTS
TAF AMD
KHTS 031406Z 0314/0412 27003KT P6SM BKN008 OVC015
     FM031700 28004KT P6SM BKN020
     FM031800 30006KT P6SM BKN035
     FM032100 31007KT P6SM BKN040=



000
FTUS41 KRLX 031406 AAA
TAFCRW
TAF AMD
KCRW 031406Z 0314/0412 VRB03KT P6SM BKN008 OVC015
     FM031800 27004KT P6SM BKN020
     FM031900 28005KT P6SM BKN025
     FM032100 29006KT P6SM BKN035=



    US Dept of Commerce
    National Oceanic and Atmospheric Administration
    National Weather Service
    1325 East West Highway
    Silver Spring, MD 20910
    Page Author: NWS Internet Services Team
Disclaimer
Information Quality
Credits
Glossary
Privacy Policy
Freedom of Information Act (FOIA)
About Us
Career Opportunities